Time;durP1;ratioP1;P1;durP2;ratioP2;P2;SDS_P1;SDS_P2;PMS_P1;PMS_P2;Temp;Humidity;BMP_temperature;BMP_pressure;BME280_temperature;BME280_humidity;BME280_pressure;Samples;Min_cycle;Max_cycle;Signal;HPM_P1;HPM_P2
2022/12/20 00:01:34;;;;;;;14.93;10.75;;;;;;;1.18;100.00;96338.25;5077613;28;24438;-70
2022/12/20 00:04:04;;;;;;;16.85;11.10;;;;;;;1.13;100.00;96329.84;5077853;28;24462;-70
2022/12/20 00:06:30;;;;;;;15.37;10.77;;;;;;;1.14;100.00;96316.22;5076898;28;24497;-69
2022/12/20 00:08:59;;;;;;;15.02;11.02;;;;;;;1.15;100.00;96306.00;5077142;28;24445;-70
2022/12/20 00:11:27;;;;;;;14.70;10.73;;;;;;;1.14;100.00;96306.03;5072182;28;24441;-70
2022/12/20 00:13:54;;;;;;;15.73;11.85;;;;;;;1.13;100.00;96307.75;5076344;28;24528;-69
2022/12/20 00:16:23;;;;;;;14.30;11.55;;;;;;;1.16;100.00;96302.59;5082967;28;24441;-70
2022/12/20 00:18:54;;;;;;;18.25;12.27;;;;;;;1.14;100.00;96304.31;5076400;28;24441;-69
2022/12/20 00:21:22;;;;;;;14.63;11.15;;;;;;;1.14;100.00;96298.38;5078228;28;24438;-70
2022/12/20 00:23:48;;;;;;;14.73;10.25;;;;;;;1.10;100.00;96297.59;5081406;28;24462;-70
2022/12/20 00:26:17;;;;;;;12.65;10.38;;;;;;;1.10;100.00;96289.09;5082869;28;25021;-69
2022/12/20 00:28:44;;;;;;;15.57;10.32;;;;;;;1.12;100.00;96295.84;5075501;28;24442;-70
2022/12/20 00:31:12;;;;;;;13.30;10.05;;;;;;;1.11;100.00;96298.41;5066113;28;24481;-70
2022/12/20 00:33:39;;;;;;;14.38;10.18;;;;;;;1.17;100.00;96291.50;5069672;28;24465;-69
2022/12/20 00:36:08;;;;;;;11.95;10.23;;;;;;;1.16;100.00;96284.72;5079263;28;24430;-69
2022/12/20 00:38:35;;;;;;;10.95;9.70;;;;;;;1.12;100.00;96282.25;5083104;28;24441;-69
2022/12/20 00:41:02;;;;;;;12.57;10.05;;;;;;;1.13;100.00;96283.94;5080694;28;24431;-70
2022/12/20 00:43:29;;;;;;;15.80;10.60;;;;;;;1.14;100.00;96293.25;5083314;28;24458;-70
2022/12/20 00:45:56;;;;;;;12.82;10.45;;;;;;;1.14;100.00;96275.41;5084386;28;24430;-69
2022/12/20 00:48:23;;;;;;;16.13;11.38;;;;;;;1.18;100.00;96282.97;5083774;28;25051;-70
2022/12/20 00:50:49;;;;;;;14.50;11.48;;;;;;;1.16;100.00;96294.09;5081130;28;24441;-70
2022/12/20 00:53:17;;;;;;;19.02;11.88;;;;;;;1.14;100.00;96300.91;5082524;28;24437;-70
2022/12/20 00:55:45;;;;;;;15.10;10.85;;;;;;;1.13;100.00;96312.84;5081174;28;24446;-70
2022/12/20 00:58:13;;;;;;;15.73;10.35;;;;;;;1.09;100.00;96310.38;5080588;28;24998;-69
2022/12/20 01:00:40;;;;;;;12.40;9.90;;;;;;;1.12;100.00;96311.16;5079216;28;24434;-69
2022/12/20 01:03:07;;;;;;;13.88;9.70;;;;;;;1.25;100.00;96313.50;5082727;28;24438;-70
2022/12/20 01:05:33;;;;;;;14.13;10.80;;;;;;;1.33;100.00;96304.81;5082009;28;24796;-69
2022/12/20 01:08:00;;;;;;;14.45;11.30;;;;;;;1.37;100.00;96291.16;5079956;28;24439;-70
2022/12/20 01:10:28;;;;;;;14.27;11.88;;;;;;;1.36;100.00;96291.19;5080731;28;24465;-69
2022/12/20 01:12:54;;;;;;;11.45;9.82;;;;;;;1.42;100.00;96291.06;5080428;28;24435;-70
2022/12/20 01:15:21;;;;;;;9.75;8.68;;;;;;;1.47;100.00;96279.06;5081903;28;25059;-69
2022/12/20 01:17:48;;;;;;;11.67;9.27;;;;;;;1.45;100.00;96285.91;5078076;28;24442;-70
2022/12/20 01:20:15;;;;;;;20.20;9.18;;;;;;;1.48;100.00;96288.38;5083273;28;24452;-70
2022/12/20 01:22:42;;;;;;;10.50;9.23;;;;;;;1.47;100.00;96288.44;5078252;28;24478;-70
2022/12/20 01:25:08;;;;;;;15.70;11.45;;;;;;;1.48;100.00;96292.66;5072445;28;24809;-70
2022/12/20 01:27:36;;;;;;;13.25;9.98;;;;;;;1.47;100.00;96296.91;5068419;28;24431;-70
2022/12/20 01:30:03;;;;;;;14.10;8.90;;;;;;;1.42;100.00;96309.78;5076439;28;24442;-69
2022/12/20 01:32:29;;;;;;;11.05;9.20;;;;;;;1.25;100.00;96296.47;5073786;28;24431;-70
2022/12/20 01:34:56;;;;;;;15.15;10.45;;;;;;;1.22;100.00;96296.53;5079764;28;24430;-69
2022/12/20 01:37:22;;;;;;;13.23;9.60;;;;;;;1.17;100.00;96293.22;5073671;28;24442;-70
2022/12/20 01:39:49;;;;;;;10.38;8.77;;;;;;;1.24;100.00;96297.34;5075296;28;24431;-70
2022/12/20 01:42:16;;;;;;;11.70;9.00;;;;;;;1.31;100.00;96298.91;5075462;28;24439;-70
2022/12/20 01:44:58;;;;;;;10.90;8.07;;;;;;;1.32;100.00;96287.84;5079598;28;24458;-70
2022/12/20 01:47:26;;;;;;;13.38;8.32;;;;;;;1.29;100.00;96281.94;5073630;28;24445;-70
2022/12/20 01:49:56;;;;;;;11.50;7.75;;;;;;;1.28;100.00;96272.63;5071159;28;24431;-70
2022/12/20 01:52:29;;;;;;;10.65;8.10;;;;;;;1.34;100.00;96270.81;5062621;28;24466;-70
2022/12/20 01:55:02;;;;;;;10.30;7.90;;;;;;;1.37;100.00;96275.00;5077244;28;24426;-70
2022/12/20 01:57:34;;;;;;;10.55;8.05;;;;;;;1.44;100.00;96263.78;5072451;28;24805;-69
2022/12/20 02:00:03;;;;;;;10.32;7.55;;;;;;;1.47;100.00;96262.91;5078485;28;24434;-70
2022/12/20 02:02:31;;;;;;;9.98;7.95;;;;;;;1.47;100.00;96265.47;5080444;28;24436;-69
2022/12/20 02:04:58;;;;;;;9.52;8.00;;;;;;;1.45;100.00;96268.88;5083039;28;24451;-70
2022/12/20 02:07:29;;;;;;;10.95;9.18;;;;;;;1.37;100.00;96270.75;5081203;28;24438;-70
2022/12/20 02:09:57;;;;;;;10.43;8.30;;;;;;;1.35;100.00;96269.91;5077344;28;24460;-70
2022/12/20 02:12:25;;;;;;;16.60;13.27;;;;;;;1.43;100.00;96270.63;5081553;28;24445;-70
2022/12/20 02:15:11;;;;;;;12.50;10.95;;;;;;;1.39;100.00;96260.50;5078182;28;25027;-69
2022/12/20 02:17:49;;;;;;;11.65;9.02;;;;;;;1.33;100.00;96270.81;5073695;28;24434;-69
2022/12/20 02:20:54;;;;;;;13.35;8.18;;;;;;;1.39;100.00;96263.06;5073909;28;24538;-69
2022/12/20 02:23:51;;;;;;;13.63;8.15;;;;;;;1.42;100.00;96270.66;5072322;28;24445;-69
2022/12/20 02:26:37;;;;;;;8.77;7.53;;;;;;;1.48;100.00;96249.25;5068472;28;24434;-69
2022/12/20 02:29:21;;;;;;;9.68;7.65;;;;;;;1.48;100.00;96256.91;5082566;28;24434;-69
2022/12/20 02:31:57;;;;;;;12.57;10.90;;;;;;;1.47;100.00;96265.47;5079439;28;25066;-69
2022/12/20 02:34:26;;;;;;;24.77;17.73;;;;;;;1.43;100.00;96250.19;5079776;28;25011;-70
2022/12/20 02:36:53;;;;;;;26.73;19.25;;;;;;;1.41;100.00;96254.50;5071156;28;24470;-69
2022/12/20 02:39:21;;;;;;;32.35;21.60;;;;;;;1.37;100.00;96262.22;5080208;28;24441;-69
2022/12/20 02:41:51;;;;;;;15.38;12.35;;;;;;;1.40;100.00;96257.91;5077215;28;24553;-69
2022/12/20 02:47:12;;;;;;;9.20;7.63;;;;;;;1.44;100.00;96238.28;5075346;28;24433;-69
2022/12/20 02:49:42;;;;;;;8.32;7.32;;;;;;;1.45;100.00;96230.59;5080522;28;25007;-69
2022/12/20 02:52:11;;;;;;;8.00;6.40;;;;;;;1.47;100.00;96230.56;5077917;28;24434;-69
2022/12/20 02:54:38;;;;;;;9.23;7.53;;;;;;;1.47;100.00;96250.97;5079808;28;24449;-69
2022/12/20 02:57:11;;;;;;;9.13;7.20;;;;;;;1.48;100.00;96254.38;5079752;28;24438;-69
2022/12/20 02:59:41;;;;;;;8.82;7.03;;;;;;;1.32;100.00;96264.03;5079966;28;24442;-69
2022/12/20 03:02:10;;;;;;;8.70;7.57;;;;;;;1.20;100.00;96250.63;5077561;28;24446;-70
2022/12/20 03:04:40;;;;;;;9.57;6.85;;;;;;;1.29;100.00;96239.41;5080293;28;24458;-70
2022/12/20 03:07:10;;;;;;;9.80;7.05;;;;;;;1.29;100.00;96224.09;5078980;28;24445;-70
2022/12/20 03:09:39;;;;;;;8.55;7.30;;;;;;;1.40;100.00;96208.56;5079941;28;24442;-70
2022/12/20 03:12:07;;;;;;;12.48;6.85;;;;;;;1.48;100.00;96216.09;5078060;28;24426;-70
2022/12/20 03:14:33;;;;;;;11.10;7.32;;;;;;;1.51;100.00;96205.81;5081673;28;24628;-70
2022/12/20 03:17:01;;;;;;;7.20;6.45;;;;;;;1.50;100.00;96225.41;5076961;28;24441;-70
2022/12/20 03:19:29;;;;;;;8.48;6.72;;;;;;;1.47;100.00;96225.44;5079450;28;24444;-70
2022/12/20 03:21:55;;;;;;;9.82;6.97;;;;;;;1.33;100.00;96224.88;5072154;28;24809;-70
2022/12/20 03:24:22;;;;;;;11.82;6.82;;;;;;;1.23;100.00;96228.50;5082516;28;24461;-70
2022/12/20 03:26:48;;;;;;;8.65;6.78;;;;;;;1.28;100.00;96235.19;5076555;28;24437;-70
2022/12/20 03:29:15;;;;;;;8.25;7.15;;;;;;;1.34;100.00;96231.69;5075947;28;24437;-70
2022/12/20 03:31:42;;;;;;;8.70;6.95;;;;;;;1.36;100.00;96228.22;5071769;28;24442;-70
2022/12/20 03:34:08;;;;;;;8.85;6.93;;;;;;;1.43;100.00;96234.03;5063890;28;24440;-70
2022/12/20 03:36:36;;;;;;;11.05;7.32;;;;;;;1.44;100.00;96226.34;5073986;28;24441;-70
2022/12/20 03:39:03;;;;;;;7.85;7.00;;;;;;;1.49;100.00;96228.81;5070379;28;24438;-70
2022/12/20 03:41:29;;;;;;;8.10;7.20;;;;;;;1.51;100.00;96216.84;5069482;28;24445;-70
2022/12/20 03:43:56;;;;;;;9.32;7.57;;;;;;;1.59;100.00;96201.38;5076519;28;24435;-70
2022/12/20 03:46:22;;;;;;;8.55;7.10;;;;;;;1.64;100.00;96200.44;5078963;28;24445;-70
2022/12/20 03:48:49;;;;;;;13.05;7.47;;;;;;;1.66;100.00;96195.28;5075837;28;24434;-70
2022/12/20 03:51:15;;;;;;;9.80;6.72;;;;;;;1.75;100.00;96201.94;5081433;28;25010;-70
2022/12/20 03:53:43;;;;;;;8.73;6.87;;;;;;;1.67;100.00;96208.03;5075151;28;24528;-71
2022/12/20 03:56:10;;;;;;;7.78;6.65;;;;;;;1.69;100.00;96205.44;5078253;28;24504;-71
2022/12/20 03:58:36;;;;;;;9.18;6.93;;;;;;;1.74;100.00;96206.16;5064343;28;24434;-70
2022/12/20 04:01:15;;;;;;;9.93;6.53;;;;;;;1.87;100.00;96199.94;5067559;28;24434;-70
2022/12/20 04:03:42;;;;;;;7.93;6.70;;;;;;;1.89;100.00;96190.53;5076554;28;24476;-71
2022/12/20 04:06:08;;;;;;;7.45;6.68;;;;;;;1.90;100.00;96207.53;5079223;28;24454;-70
2022/12/20 04:08:35;;;;;;;7.63;6.53;;;;;;;1.88;100.00;96216.94;5064661;28;24431;-70
2022/12/20 04:11:18;;;;;;;9.15;6.43;;;;;;;1.82;100.00;96206.03;5069196;28;25010;-70
2022/12/20 04:13:45;;;;;;;6.93;6.13;;;;;;;1.84;100.00;96212.75;5072982;28;24859;-70
2022/12/20 04:16:14;;;;;;;7.75;5.90;;;;;;;1.90;100.00;96214.38;5078810;28;24426;-70
2022/12/20 04:18:41;;;;;;;6.88;6.05;;;;;;;1.84;100.00;96224.69;5067701;28;25015;-70
2022/12/20 04:21:08;;;;;;;10.40;6.55;;;;;;;1.82;100.00;96211.13;5069559;28;24454;-70
2022/12/20 04:23:35;;;;;;;8.38;6.28;;;;;;;1.85;100.00;96199.13;5079711;28;24435;-70
2022/12/20 04:26:05;;;;;;;7.18;6.47;;;;;;;1.79;100.00;96198.44;5081532;28;24446;-71
2022/12/20 04:28:31;;;;;;;10.57;7.33;;;;;;;1.81;100.00;96202.59;5069629;28;24430;-70
2022/12/20 04:30:58;;;;;;;7.13;6.40;;;;;;;1.83;100.00;96197.50;5077623;28;24442;-71
2022/12/20 04:33:26;;;;;;;8.80;6.63;;;;;;;1.85;100.00;96198.28;5079634;28;24457;-70
2022/12/20 04:35:53;;;;;;;9.18;6.53;;;;;;;1.85;100.00;96188.06;5085789;28;24426;-70
2022/12/20 04:38:20;;;;;;;9.13;7.32;;;;;;;1.86;100.00;96179.56;5079310;28;24438;-70
2022/12/20 04:40:48;;;;;;;7.75;6.65;;;;;;;1.86;100.00;96177.00;5075971;28;24446;-70
2022/12/20 04:43:16;;;;;;;10.07;6.78;;;;;;;1.90;100.00;96183.72;5076826;28;24438;-70
2022/12/20 04:45:43;;;;;;;9.07;6.20;;;;;;;1.88;100.00;96186.28;5084629;28;24450;-70
2022/12/20 04:48:10;;;;;;;9.03;6.43;;;;;;;1.89;100.00;96180.31;5076646;28;25038;-70
2022/12/20 04:50:37;;;;;;;9.25;6.68;;;;;;;1.92;100.00;96187.88;5082100;28;25007;-71
2022/12/20 04:55:46;;;;;;;7.68;6.20;;;;;;;1.99;100.00;96172.44;5073265;28;24527;-70
2022/12/20 04:58:13;;;;;;;8.45;6.78;;;;;;;1.95;100.00;96164.00;5079179;28;24438;-70
2022/12/20 05:00:41;;;;;;;11.07;6.65;;;;;;;2.01;100.00;96174.09;5070439;28;24434;-70
2022/12/20 05:03:08;;;;;;;9.00;6.32;;;;;;;1.98;100.00;96171.59;5076488;28;24439;-70
2022/12/20 05:05:34;;;;;;;8.50;5.75;;;;;;;2.00;100.00;96174.94;5082716;28;24449;-70
2022/12/20 05:08:01;;;;;;;7.55;6.07;;;;;;;2.00;100.00;96163.88;5074022;28;24458;-71
2022/12/20 05:10:27;;;;;;;7.30;6.25;;;;;;;2.06;100.00;96163.75;5086555;28;25109;-70
2022/12/20 05:12:54;;;;;;;6.90;5.80;;;;;;;2.05;100.00;96164.66;5079454;28;24449;-70
2022/12/20 05:15:20;;;;;;;9.73;6.20;;;;;;;2.11;100.00;96155.13;5066041;28;24438;-70
2022/12/20 05:17:48;;;;;;;9.65;6.05;;;;;;;2.14;100.00;96162.69;5069758;28;24439;-70
2022/12/20 05:20:15;;;;;;;6.78;6.07;;;;;;;2.11;100.00;96162.78;5059676;28;24438;-70
2022/12/20 05:28:09;;;;;;;6.50;5.43;;;;;;;2.20;100.00;96159.16;5072488;28;24850;-70
2022/12/20 05:30:36;;;;;;;7.10;5.30;;;;;;;2.08;100.00;96162.84;5078047;28;24427;-70
2022/12/20 05:33:04;;;;;;;6.00;5.32;;;;;;;2.01;100.00;96156.22;5080010;28;24482;-70
2022/12/20 05:35:30;;;;;;;7.20;5.75;;;;;;;1.93;100.00;96160.66;5079520;28;24433;-70
2022/12/20 05:37:57;;;;;;;5.95;5.28;;;;;;;1.99;100.00;96146.91;5080041;28;24435;-70
2022/12/20 05:40:23;;;;;;;6.28;5.40;;;;;;;1.92;100.00;96141.06;5083763;28;24534;-70
2022/12/20 05:42:50;;;;;;;5.72;4.70;;;;;;;1.94;100.00;96139.34;5079564;28;24430;-70
2022/12/20 05:45:16;;;;;;;5.28;4.72;;;;;;;1.96;100.00;96142.69;5075756;28;24996;-70
2022/12/20 05:47:43;;;;;;;5.88;4.63;;;;;;;2.08;100.00;96137.31;5078058;28;24437;-70
2022/12/20 05:50:11;;;;;;;6.00;4.80;;;;;;;2.16;100.00;96125.19;5078850;28;24499;-70
2022/12/20 05:52:38;;;;;;;7.33;4.80;;;;;;;2.27;100.00;96124.09;5077918;28;24434;-70
2022/12/20 05:55:05;;;;;;;5.15;4.47;;;;;;;2.28;100.00;96138.53;5079299;28;24434;-70
2022/12/20 05:57:32;;;;;;;7.75;5.25;;;;;;;2.27;100.00;96141.97;5080694;28;24446;-70
2022/12/20 05:59:58;;;;;;;9.85;5.22;;;;;;;2.24;100.00;96140.31;5080962;28;24438;-70
2022/12/20 06:02:25;;;;;;;8.68;7.60;;;;;;;2.16;100.00;96143.06;5080216;28;24533;-70
2022/12/20 06:04:51;;;;;;;9.02;6.65;;;;;;;2.17;100.00;96139.63;5076946;28;24458;-70
2022/12/20 06:07:19;;;;;;;8.98;6.85;;;;;;;2.13;100.00;96145.69;5081277;28;24437;-71
2022/12/20 06:09:46;;;;;;;10.98;7.10;;;;;;;2.13;100.00;96140.59;5078886;28;24471;-71
2022/12/20 06:12:13;;;;;;;8.00;6.25;;;;;;;2.16;100.00;96142.22;5069046;28;24442;-70
2022/12/20 06:14:40;;;;;;;7.78;6.88;;;;;;;2.13;100.00;96134.63;5061989;28;24443;-70
2022/12/20 06:17:06;;;;;;;7.95;5.47;;;;;;;2.12;100.00;96133.81;5073589;28;24434;-71
2022/12/20 06:19:33;;;;;;;7.32;5.65;;;;;;;2.12;100.00;96143.19;5075171;28;24803;-70
2022/12/20 06:22:00;;;;;;;10.20;6.60;;;;;;;2.17;100.00;96138.78;5075256;28;24522;-70
2022/12/20 06:24:28;;;;;;;11.50;6.80;;;;;;;2.12;100.00;96145.75;5076270;28;24492;-70
2022/12/20 06:26:55;;;;;;;10.05;8.25;;;;;;;2.09;100.00;96146.66;5081791;28;24454;-70
2022/12/20 06:29:23;;;;;;;8.07;6.60;;;;;;;2.12;100.00;96149.13;5073575;28;24566;-69
2022/12/20 06:31:49;;;;;;;10.02;8.02;;;;;;;2.12;100.00;96143.19;5079428;28;24995;-69
2022/12/20 06:34:16;;;;;;;14.35;11.23;;;;;;;2.12;100.00;96138.91;5075777;28;24442;-69
2022/12/20 06:36:43;;;;;;;10.48;8.43;;;;;;;2.16;100.00;96134.56;5080058;28;24449;-70
2022/12/20 06:39:10;;;;;;;7.95;5.88;;;;;;;2.19;100.00;96134.50;5066873;28;24792;-69
2022/12/20 06:41:38;;;;;;;5.63;5.03;;;;;;;2.20;100.00;96127.66;5079415;28;24445;-70
2022/12/20 06:44:04;;;;;;;7.57;4.70;;;;;;;2.29;100.00;96124.88;5072627;28;24967;-69
2022/12/20 06:46:31;;;;;;;8.82;7.00;;;;;;;2.28;100.00;96136.00;5074221;28;24849;-70
2022/12/20 06:48:57;;;;;;;6.47;5.45;;;;;;;2.37;100.00;96135.75;5070750;28;24439;-70
2022/12/20 06:51:24;;;;;;;9.40;5.75;;;;;;;2.39;100.00;96141.66;5081755;28;24987;-70
2022/12/20 06:53:51;;;;;;;5.88;5.28;;;;;;;2.44;100.00;96142.38;5071471;28;24435;-70
2022/12/20 06:56:18;;;;;;;6.35;5.40;;;;;;;2.39;100.00;96134.00;5080187;28;24441;-71
2022/12/20 06:58:46;;;;;;;7.38;5.50;;;;;;;2.39;100.00;96145.06;5067938;28;24438;-70
2022/12/20 07:01:13;;;;;;;7.00;5.45;;;;;;;2.42;100.00;96139.03;5074784;28;24816;-70
2022/12/20 07:03:39;;;;;;;6.10;4.97;;;;;;;2.50;100.00;96134.56;5069282;28;24442;-72
2022/12/20 07:06:06;;;;;;;5.97;5.30;;;;;;;2.51;100.00;96133.69;5061949;28;24450;-71
2022/12/20 07:08:33;;;;;;;10.15;7.43;;;;;;;2.48;100.00;96131.19;5067917;28;24446;-69
2022/12/20 07:11:04;;;;;;;12.98;6.70;;;;;;;2.48;100.00;96126.09;5068123;28;24445;-69
2022/12/20 07:13:30;;;;;;;7.95;6.30;;;;;;;2.50;100.00;96129.47;5070173;28;25020;-69
2022/12/20 07:15:59;;;;;;;10.63;6.10;;;;;;;2.52;100.00;96119.19;5069380;28;24423;-69
2022/12/20 07:18:26;;;;;;;8.02;6.65;;;;;;;2.49;100.00;96121.84;5069077;28;24992;-69
2022/12/20 07:20:52;;;;;;;10.20;7.13;;;;;;;2.48;100.00;96115.88;5066612;28;24989;-72
2022/12/20 07:23:19;;;;;;;7.90;6.55;;;;;;;2.52;100.00;96125.16;5069854;28;24435;-69
2022/12/20 07:25:53;;;;;;;7.30;5.70;;;;;;;2.56;100.00;96133.56;5062776;28;24466;-69
2022/12/20 07:28:19;;;;;;;7.38;5.25;;;;;;;2.58;100.00;96131.81;5066927;28;24988;-69
2022/12/20 07:30:46;;;;;;;12.80;6.30;;;;;;;2.56;100.00;96134.44;5075587;28;24423;-69
2022/12/20 07:33:14;;;;;;;12.25;7.90;;;;;;;2.49;100.00;96138.03;5080207;28;24445;-70
2022/12/20 07:35:40;;;;;;;12.38;7.43;;;;;;;2.42;100.00;96129.66;5080839;28;24769;-70
2022/12/20 07:38:07;;;;;;;7.35;6.10;;;;;;;2.37;100.00;96128.06;5072311;28;24426;-70
2022/12/20 07:40:34;;;;;;;9.70;5.97;;;;;;;2.38;100.00;96122.09;5065995;28;24452;-70
2022/12/20 07:43:00;;;;;;;6.95;5.32;;;;;;;2.37;100.00;96116.16;5076011;28;24443;-69
2022/12/20 07:45:27;;;;;;;7.15;5.07;;;;;;;2.39;100.00;96123.78;5081246;28;24458;-70
2022/12/20 07:47:53;;;;;;;7.32;4.88;;;;;;;2.43;100.00;96122.81;5073279;28;24438;-71
2022/12/20 07:50:21;;;;;;;6.32;5.57;;;;;;;2.56;100.00;96119.09;5078931;28;24458;-69
2022/12/20 07:52:49;;;;;;;7.18;5.43;;;;;;;2.58;100.00;96114.75;5071882;28;24443;-71
2022/12/20 07:55:18;;;;;;;9.90;7.72;;;;;;;2.67;100.00;96116.25;5078763;28;25010;-69
2022/12/20 07:57:49;;;;;;;9.73;6.63;;;;;;;2.75;100.00;96118.59;5075954;28;24435;-69
2022/12/20 08:00:17;;;;;;;9.70;6.95;;;;;;;2.79;100.00;96112.53;5084333;28;25216;-69
2022/12/20 08:02:51;;;;;;;8.35;5.78;;;;;;;2.99;100.00;96104.31;5077381;28;24472;-70
2022/12/20 08:05:18;;;;;;;6.40;5.00;;;;;;;3.01;100.00;96111.06;5076679;28;24815;-69
2022/12/20 08:07:47;;;;;;;7.07;5.28;;;;;;;3.02;100.00;96102.50;5078864;28;24458;-70
2022/12/20 08:10:18;;;;;;;8.63;5.45;;;;;;;3.00;100.00;96104.25;5079540;28;25017;-71
2022/12/20 08:12:46;;;;;;;7.57;5.07;;;;;;;3.03;100.00;96114.41;5081480;28;24927;-70
2022/12/20 08:15:13;;;;;;;6.32;5.40;;;;;;;3.02;100.00;96106.78;5077497;28;24443;-68
2022/12/20 08:17:39;;;;;;;8.27;5.43;;;;;;;3.05;100.00;96110.09;5074873;28;24438;-70
2022/12/20 08:20:07;;;;;;;9.63;6.07;;;;;;;3.06;100.00;96105.81;5081473;28;24445;-71
2022/12/20 08:22:34;;;;;;;7.50;6.50;;;;;;;3.04;100.00;96110.97;5074750;28;24542;-70
2022/12/20 08:25:03;;;;;;;6.57;5.70;;;;;;;3.08;100.00;96112.56;5076266;28;24446;-71
2022/12/20 08:27:30;;;;;;;10.52;6.80;;;;;;;3.12;100.00;96100.53;5078352;28;24605;-71
2022/12/20 08:29:56;;;;;;;11.17;8.03;;;;;;;3.09;100.00;96100.63;5075640;28;24429;-71
2022/12/20 08:32:23;;;;;;;15.60;9.30;;;;;;;3.04;100.00;96093.06;5082085;28;25110;-70
2022/12/20 08:34:49;;;;;;;14.18;9.32;;;;;;;3.06;100.00;96090.47;5084131;28;24533;-70
2022/12/20 08:37:16;;;;;;;8.45;7.07;;;;;;;3.04;100.00;96082.84;5080151;28;24805;-70
2022/12/20 08:39:43;;;;;;;7.45;5.90;;;;;;;3.00;100.00;96081.22;5071665;28;24447;-71
2022/12/20 08:42:11;;;;;;;6.07;5.47;;;;;;;2.96;100.00;96084.75;5083583;28;24994;-72
2022/12/20 08:44:37;;;;;;;7.75;5.78;;;;;;;2.93;100.00;96089.97;5082251;28;24445;-71
2022/12/20 08:47:04;;;;;;;7.88;6.80;;;;;;;2.96;100.00;96089.88;5074111;28;24446;-71
2022/12/20 08:49:30;;;;;;;6.88;5.43;;;;;;;2.98;100.00;96087.28;5068170;28;24442;-71
2022/12/20 08:51:57;;;;;;;6.75;5.63;;;;;;;3.03;100.00;96088.81;5058509;28;25021;-70
2022/12/20 08:54:23;;;;;;;6.57;5.35;;;;;;;3.08;100.00;96084.41;5061648;28;24454;-70
2022/12/20 08:56:50;;;;;;;7.97;6.32;;;;;;;3.12;100.00;96075.78;5055733;28;24442;-71
2022/12/20 08:59:18;;;;;;;7.22;5.80;;;;;;;3.13;100.00;96072.31;5046749;28;24470;-72
2022/12/20 09:01:44;;;;;;;7.40;6.20;;;;;;;3.17;100.00;96072.25;5050398;28;24470;-71
2022/12/20 09:04:12;;;;;;;6.95;6.28;;;;;;;3.23;100.00;96072.91;5059037;28;24534;-71
2022/12/20 09:06:38;;;;;;;7.50;5.23;;;;;;;3.25;100.00;96067.72;5050404;28;24458;-72
2022/12/20 09:09:05;;;;;;;6.97;5.32;;;;;;;3.29;100.00;96082.94;5051489;28;25027;-72
2022/12/20 09:11:33;;;;;;;10.87;8.17;;;;;;;3.32;100.00;96098.22;5062179;28;24512;-73
2022/12/20 09:13:59;;;;;;;13.70;8.40;;;;;;;3.34;100.00;96090.53;5059376;28;24467;-72
2022/12/20 09:16:30;;;;;;;17.35;10.50;;;;;;;3.35;100.00;96090.47;5061819;28;24441;-72
2022/12/20 09:18:58;;;;;;;11.17;7.87;;;;;;;3.41;100.00;96089.44;5059629;28;24462;-72
2022/12/20 09:21:25;;;;;;;7.53;5.72;;;;;;;3.54;100.00;96085.63;5060958;28;24441;-71
2022/12/20 09:23:52;;;;;;;9.10;5.33;;;;;;;3.58;100.00;96088.94;5058317;28;25088;-70
2022/12/20 09:26:21;;;;;;;16.50;11.18;;;;;;;3.58;100.00;96081.25;5062166;28;24511;-71
2022/12/20 09:28:48;;;;;;;8.93;5.10;;;;;;;3.67;100.00;96075.88;5065449;28;24461;-71
2022/12/20 09:31:16;;;;;;;8.02;4.85;;;;;;;3.81;100.00;96083.09;5061957;28;24434;-70
2022/12/20 09:33:45;;;;;;;7.65;5.28;;;;;;;3.94;100.00;96071.59;5063221;28;24443;-71
2022/12/20 09:36:12;;;;;;;8.45;5.32;;;;;;;3.95;100.00;96070.69;5053554;28;24443;-73
2022/12/20 09:38:39;;;;;;;9.30;5.45;;;;;;;3.98;100.00;96070.59;5063336;28;24445;-71
2022/12/20 09:41:08;;;;;;;11.10;8.15;;;;;;;4.00;100.00;96073.94;5050094;28;24437;-71
2022/12/20 09:43:36;;;;;;;9.35;6.07;;;;;;;4.05;100.00;96082.34;5058202;28;24450;-72
2022/12/20 09:46:03;;;;;;;13.75;8.70;;;;;;;3.96;100.00;96076.66;5060619;28;24458;-72
2022/12/20 09:48:35;;;;;;;9.68;7.85;;;;;;;3.90;100.00;96064.88;5050022;28;24436;-72
2022/12/20 09:51:12;;;;;;;12.38;9.50;;;;;;;3.87;100.00;96067.53;5044119;28;24489;-74
2022/12/20 09:53:47;;;;;;;14.85;9.63;;;;;;;3.81;100.00;96065.16;5052603;28;24446;-71
2022/12/20 09:56:20;;;;;;;12.80;8.90;;;;;;;3.78;100.00;96070.38;5057619;28;24432;-70
2022/12/20 09:58:59;;;;;;;11.30;7.18;;;;;;;3.75;100.00;96068.78;5049298;28;24531;-72
2022/12/20 10:01:29;;;;;;;13.88;10.20;;;;;;;3.82;100.00;96066.84;5043901;28;24798;-73
2022/12/20 10:03:57;;;;;;;11.10;6.40;;;;;;;3.84;100.00;96055.66;5057139;28;24446;-71
2022/12/20 10:06:35;;;;;;;8.75;5.35;;;;;;;3.90;100.00;96057.19;5049579;28;24455;-71
2022/12/20 10:09:04;;;;;;;7.22;5.28;;;;;;;3.94;100.00;96047.69;5057498;28;24454;-70
2022/12/20 10:11:49;;;;;;;7.68;5.05;;;;;;;3.96;100.00;96051.88;5056998;28;24438;-71
2022/12/20 10:14:30;;;;;;;7.18;5.18;;;;;;;4.05;100.00;96055.88;5046400;28;24448;-71
2022/12/20 10:17:02;;;;;;;6.25;4.72;;;;;;;4.05;100.00;96045.63;5047304;28;25222;-73
2022/12/20 10:19:50;;;;;;;5.00;4.18;;;;;;;4.16;100.00;96040.97;5051194;28;24455;-73
2022/12/20 10:22:21;;;;;;;10.48;4.95;;;;;;;4.17;100.00;96041.81;5051969;28;24450;-72
2022/12/20 10:24:52;;;;;;;7.33;4.90;;;;;;;4.14;100.00;96037.63;5048269;28;24538;-72
2022/12/20 10:27:21;;;;;;;6.97;4.72;;;;;;;4.18;100.00;96038.34;5051363;28;24513;-71
2022/12/20 10:29:50;;;;;;;11.80;5.00;;;;;;;4.17;100.00;96039.25;5052176;28;24447;-71
2022/12/20 10:32:19;;;;;;;11.93;7.80;;;;;;;4.24;100.00;96038.16;5049769;28;24443;-71
2022/12/20 10:34:52;;;;;;;8.40;6.00;;;;;;;4.14;100.00;96032.50;5050361;28;24431;-71
2022/12/20 10:37:20;;;;;;;6.70;4.90;;;;;;;4.17;100.00;96032.38;5047925;28;24442;-72
2022/12/20 10:39:49;;;;;;;10.00;5.82;;;;;;;4.16;100.00;96029.91;5049917;28;24439;-73
2022/12/20 10:42:26;;;;;;;15.20;10.15;;;;;;;4.12;100.00;96022.28;5047017;28;24435;-71
2022/12/20 10:44:53;;;;;;;7.57;6.13;;;;;;;4.18;100.00;96017.84;5057765;28;24442;-72
2022/12/20 10:47:33;;;;;;;6.70;4.72;;;;;;;4.19;100.00;96016.94;5052070;28;24446;-72
2022/12/20 10:50:13;;;;;;;5.65;4.35;;;;;;;4.19;100.00;96011.81;5056556;28;24522;-72
2022/12/20 10:52:41;;;;;;;5.25;4.18;;;;;;;4.25;100.00;96002.19;5054993;28;24435;-71
2022/12/20 10:55:35;;;;;;;6.68;4.90;;;;;;;4.28;100.00;96007.22;5043485;28;24439;-72
2022/12/20 10:58:04;;;;;;;5.55;4.05;;;;;;;4.26;100.00;95998.75;5057667;28;24442;-72
2022/12/20 11:00:32;;;;;;;11.52;4.57;;;;;;;4.27;100.00;95984.22;5054012;28;24435;-72
2022/12/20 11:03:10;;;;;;;5.25;4.20;;;;;;;4.31;100.00;95980.66;5051517;28;24797;-72
2022/12/20 11:05:37;;;;;;;5.18;4.05;;;;;;;4.33;100.00;95982.25;5049355;28;24505;-72
2022/12/20 11:08:14;;;;;;;4.40;3.65;;;;;;;4.43;100.00;95974.25;5047377;28;24459;-72
2022/12/20 11:10:41;;;;;;;6.55;3.80;;;;;;;4.45;100.00;95981.00;5046531;28;24846;-71
2022/12/20 11:13:20;;;;;;;7.00;4.47;;;;;;;4.39;100.00;95981.22;5058370;28;24500;-71
2022/12/20 11:15:49;;;;;;;4.35;3.92;;;;;;;4.36;100.00;95976.19;5039472;28;24806;-71
2022/12/20 11:18:22;;;;;;;6.88;3.80;;;;;;;4.42;100.00;95973.41;5051014;28;24431;-71
2022/12/20 11:20:57;;;;;;;6.35;4.35;;;;;;;4.42;100.00;95963.16;5053990;28;24428;-71
2022/12/20 11:23:30;;;;;;;5.20;4.20;;;;;;;4.41;100.00;95971.72;5055878;28;24498;-71
2022/12/20 11:26:13;;;;;;;5.70;4.25;;;;;;;4.36;100.00;95961.63;5058853;28;24443;-71
2022/12/20 11:28:55;;;;;;;5.77;4.43;;;;;;;4.33;100.00;95954.06;5051191;28;24523;-71
2022/12/20 11:31:28;;;;;;;5.17;4.00;;;;;;;4.35;100.00;95942.03;5050694;28;24443;-71
2022/12/20 11:34:06;;;;;;;5.40;3.90;;;;;;;4.35;100.00;95931.75;5060877;28;25000;-72
2022/12/20 11:36:49;;;;;;;4.10;3.67;;;;;;;4.43;100.00;95923.78;5059431;28;24532;-73
2022/12/20 11:39:27;;;;;;;6.03;4.10;;;;;;;4.50;100.00;95932.94;5045445;28;24431;-73
2022/12/20 11:42:02;;;;;;;6.25;4.88;;;;;;;4.55;100.00;95931.03;5056857;28;25051;-72
2022/12/20 11:44:43;;;;;;;6.70;4.88;;;;;;;4.58;100.00;95927.53;5062857;28;24446;-71
2022/12/20 11:47:31;;;;;;;8.48;5.90;;;;;;;4.59;100.00;95929.19;5056190;28;24999;-71
2022/12/20 11:50:19;;;;;;;13.05;8.73;;;;;;;4.60;100.00;95946.28;5054365;28;24500;-71